sensor_id;sensor_type;location;lat;lon;timestamp;pressure;altitude;pressure_sealevel;temperature
80496;BMP180;69819;48.798;11.770;2024-03-22T00:01:54;98214.00;;;8.00
80496;BMP180;69819;48.798;11.770;2024-03-22T00:04:21;98131.00;;;8.00
80496;BMP180;69819;48.798;11.770;2024-03-22T00:06:48;98187.00;;;8.00
80496;BMP180;69819;48.798;11.770;2024-03-22T00:09:16;98178.00;;;7.70
80496;BMP180;69819;48.798;11.770;2024-03-22T00:11:43;98191.00;;;7.80
80496;BMP180;69819;48.798;11.770;2024-03-22T00:14:11;98187.00;;;7.90
80496;BMP180;69819;48.798;11.770;2024-03-22T00:16:37;98170.00;;;7.70
80496;BMP180;69819;48.798;11.770;2024-03-22T00:19:04;98055.00;;;7.30
80496;BMP180;69819;48.798;11.770;2024-03-22T00:21:30;98147.00;;;7.70
80496;BMP180;69819;48.798;11.770;2024-03-22T00:23:57;98191.00;;;7.70
80496;BMP180;69819;48.798;11.770;2024-03-22T00:26:23;98102.00;;;7.70
80496;BMP180;69819;48.798;11.770;2024-03-22T00:28:49;98204.00;;;7.60
80496;BMP180;69819;48.798;11.770;2024-03-22T00:31:15;98129.00;;;7.60
80496;BMP180;69819;48.798;11.770;2024-03-22T00:33:42;98196.00;;;7.50
80496;BMP180;69819;48.798;11.770;2024-03-22T00:36:08;98105.00;;;7.60
80496;BMP180;69819;48.798;11.770;2024-03-22T00:38:34;98135.00;;;7.50
80496;BMP180;69819;48.798;11.770;2024-03-22T00:41:00;98070.00;;;7.50
80496;BMP180;69819;48.798;11.770;2024-03-22T00:43:26;98105.00;;;7.50
80496;BMP180;69819;48.798;11.770;2024-03-22T00:45:52;98118.00;;;7.50
80496;BMP180;69819;48.798;11.770;2024-03-22T00:48:18;98089.00;;;7.50
80496;BMP180;69819;48.798;11.770;2024-03-22T00:50:44;98154.00;;;7.40
80496;BMP180;69819;48.798;11.770;2024-03-22T00:53:10;98161.00;;;7.40
80496;BMP180;69819;48.798;11.770;2024-03-22T00:55:37;98098.00;;;7.40
80496;BMP180;69819;48.798;11.770;2024-03-22T00:58:03;98100.00;;;7.40
80496;BMP180;69819;48.798;11.770;2024-03-22T01:00:29;98150.00;;;7.40
80496;BMP180;69819;48.798;11.770;2024-03-22T01:02:54;98127.00;;;7.40
80496;BMP180;69819;48.798;11.770;2024-03-22T01:05:20;98125.00;;;7.40
80496;BMP180;69819;48.798;11.770;2024-03-22T01:07:46;98107.00;;;7.40
80496;BMP180;69819;48.798;11.770;2024-03-22T01:10:12;98116.00;;;7.40
80496;BMP180;69819;48.798;11.770;2024-03-22T01:12:38;98141.00;;;7.40
80496;BMP180;69819;48.798;11.770;2024-03-22T01:15:06;98115.00;;;7.40
80496;BMP180;69819;48.798;11.770;2024-03-22T01:17:33;98137.00;;;7.40
80496;BMP180;69819;48.798;11.770;2024-03-22T01:19:59;97999.00;;;7.40
80496;BMP180;69819;48.798;11.770;2024-03-22T01:22:25;98156.00;;;7.40
80496;BMP180;69819;48.798;11.770;2024-03-22T01:24:51;98070.00;;;7.20
80496;BMP180;69819;48.798;11.770;2024-03-22T01:27:17;98124.00;;;7.40
80496;BMP180;69819;48.798;11.770;2024-03-22T01:29:43;98096.00;;;7.40
80496;BMP180;69819;48.798;11.770;2024-03-22T01:32:09;98099.00;;;7.40
80496;BMP180;69819;48.798;11.770;2024-03-22T01:34:34;98076.00;;;7.30
80496;BMP180;69819;48.798;11.770;2024-03-22T01:37:01;98120.00;;;7.30
80496;BMP180;69819;48.798;11.770;2024-03-22T01:39:27;98051.00;;;7.20
80496;BMP180;69819;48.798;11.770;2024-03-22T01:41:53;98049.00;;;7.20
80496;BMP180;69819;48.798;11.770;2024-03-22T01:44:19;98083.00;;;7.10
80496;BMP180;69819;48.798;11.770;2024-03-22T01:46:47;98051.00;;;7.10
80496;BMP180;69819;48.798;11.770;2024-03-22T01:49:15;98072.00;;;7.00
80496;BMP180;69819;48.798;11.770;2024-03-22T01:51:42;98037.00;;;7.00
80496;BMP180;69819;48.798;11.770;2024-03-22T01:54:09;98090.00;;;6.90
80496;BMP180;69819;48.798;11.770;2024-03-22T01:56:40;98070.00;;;6.80
80496;BMP180;69819;48.798;11.770;2024-03-22T01:59:06;98094.00;;;6.80
80496;BMP180;69819;48.798;11.770;2024-03-22T02:01:33;98044.00;;;5.90
80496;BMP180;69819;48.798;11.770;2024-03-22T02:04:00;98089.00;;;6.60
80496;BMP180;69819;48.798;11.770;2024-03-22T02:06:26;97826.00;;;6.70
80496;BMP180;69819;48.798;11.770;2024-03-22T02:08:51;97909.00;;;6.60
80496;BMP180;69819;48.798;11.770;2024-03-22T02:11:17;98043.00;;;6.60
80496;BMP180;69819;48.798;11.770;2024-03-22T02:13:44;98070.00;;;6.50
80496;BMP180;69819;48.798;11.770;2024-03-22T02:16:10;98033.00;;;6.20
80496;BMP180;69819;48.798;11.770;2024-03-22T02:18:36;98072.00;;;6.50
80496;BMP180;69819;48.798;11.770;2024-03-22T02:21:03;98033.00;;;6.20
80496;BMP180;69819;48.798;11.770;2024-03-22T02:23:38;98064.00;;;6.10
80496;BMP180;69819;48.798;11.770;2024-03-22T02:26:05;98040.00;;;6.40
80496;BMP180;69819;48.798;11.770;2024-03-22T02:28:32;98071.00;;;6.40
80496;BMP180;69819;48.798;11.770;2024-03-22T02:30:59;98052.00;;;6.40
80496;BMP180;69819;48.798;11.770;2024-03-22T02:33:25;98035.00;;;6.30
80496;BMP180;69819;48.798;11.770;2024-03-22T02:35:52;98029.00;;;6.30
80496;BMP180;69819;48.798;11.770;2024-03-22T02:38:18;98061.00;;;6.10
80496;BMP180;69819;48.798;11.770;2024-03-22T02:40:46;97966.00;;;6.30
80496;BMP180;69819;48.798;11.770;2024-03-22T02:43:12;97999.00;;;6.20
80496;BMP180;69819;48.798;11.770;2024-03-22T02:45:38;98051.00;;;6.20
80496;BMP180;69819;48.798;11.770;2024-03-22T02:48:05;98043.00;;;6.20
80496;BMP180;69819;48.798;11.770;2024-03-22T02:50:38;98050.00;;;6.10
80496;BMP180;69819;48.798;11.770;2024-03-22T02:53:05;98059.00;;;6.10
80496;BMP180;69819;48.798;11.770;2024-03-22T02:55:39;98010.00;;;6.10
80496;BMP180;69819;48.798;11.770;2024-03-22T02:58:07;97995.00;;;6.00
80496;BMP180;69819;48.798;11.770;2024-03-22T03:00:37;97878.00;;;6.00
80496;BMP180;69819;48.798;11.770;2024-03-22T03:03:07;98066.00;;;6.00
80496;BMP180;69819;48.798;11.770;2024-03-22T03:05:33;97997.00;;;6.00
80496;BMP180;69819;48.798;11.770;2024-03-22T03:08:00;98018.00;;;5.90
80496;BMP180;69819;48.798;11.770;2024-03-22T03:10:26;98035.00;;;5.90
80496;BMP180;69819;48.798;11.770;2024-03-22T03:12:55;98016.00;;;5.90
80496;BMP180;69819;48.798;11.770;2024-03-22T03:15:21;97981.00;;;5.90
80496;BMP180;69819;48.798;11.770;2024-03-22T03:17:46;98010.00;;;5.80
80496;BMP180;69819;48.798;11.770;2024-03-22T03:20:12;98022.00;;;5.70
80496;BMP180;69819;48.798;11.770;2024-03-22T03:22:40;97976.00;;;5.80
80496;BMP180;69819;48.798;11.770;2024-03-22T03:25:06;98024.00;;;5.70
80496;BMP180;69819;48.798;11.770;2024-03-22T03:27:33;98016.00;;;5.70
80496;BMP180;69819;48.798;11.770;2024-03-22T03:29:59;97986.00;;;5.60
80496;BMP180;69819;48.798;11.770;2024-03-22T03:32:26;97986.00;;;5.60
80496;BMP180;69819;48.798;11.770;2024-03-22T03:34:51;97988.00;;;5.60
80496;BMP180;69819;48.798;11.770;2024-03-22T03:37:17;98021.00;;;5.60
80496;BMP180;69819;48.798;11.770;2024-03-22T03:39:43;98023.00;;;5.60
80496;BMP180;69819;48.798;11.770;2024-03-22T03:42:10;98032.00;;;5.60
80496;BMP180;69819;48.798;11.770;2024-03-22T03:44:35;98008.00;;;5.60
80496;BMP180;69819;48.798;11.770;2024-03-22T03:47:02;98033.00;;;5.60
80496;BMP180;69819;48.798;11.770;2024-03-22T03:49:28;98016.00;;;5.50
80496;BMP180;69819;48.798;11.770;2024-03-22T03:51:54;98015.00;;;5.50
80496;BMP180;69819;48.798;11.770;2024-03-22T03:54:19;98010.00;;;5.50
80496;BMP180;69819;48.798;11.770;2024-03-22T03:56:45;97999.00;;;5.50
80496;BMP180;69819;48.798;11.770;2024-03-22T03:59:11;97981.00;;;5.50
80496;BMP180;69819;48.798;11.770;2024-03-22T04:01:37;97972.00;;;5.40
80496;BMP180;69819;48.798;11.770;2024-03-22T04:04:03;97947.00;;;5.20
80496;BMP180;69819;48.798;11.770;2024-03-22T04:06:29;97984.00;;;5.30
80496;BMP180;69819;48.798;11.770;2024-03-22T04:08:55;97987.00;;;5.30
80496;BMP180;69819;48.798;11.770;2024-03-22T04:11:21;97995.00;;;5.30
80496;BMP180;69819;48.798;11.770;2024-03-22T04:13:47;97969.00;;;5.30
80496;BMP180;69819;48.798;11.770;2024-03-22T04:16:13;97983.00;;;5.20
80496;BMP180;69819;48.798;11.770;2024-03-22T04:18:39;97966.00;;;5.20
80496;BMP180;69819;48.798;11.770;2024-03-22T04:21:05;97957.00;;;5.10
80496;BMP180;69819;48.798;11.770;2024-03-22T04:23:31;98008.00;;;5.00
80496;BMP180;69819;48.798;11.770;2024-03-22T04:25:59;98006.00;;;5.00
80496;BMP180;69819;48.798;11.770;2024-03-22T04:28:28;97954.00;;;5.00
80496;BMP180;69819;48.798;11.770;2024-03-22T04:30:59;97983.00;;;4.90
80496;BMP180;69819;48.798;11.770;2024-03-22T04:33:26;97988.00;;;4.90
80496;BMP180;69819;48.798;11.770;2024-03-22T04:35:53;97930.00;;;4.90
80496;BMP180;69819;48.798;11.770;2024-03-22T04:38:19;97995.00;;;4.80
80496;BMP180;69819;48.798;11.770;2024-03-22T04:40:45;97994.00;;;4.90
80496;BMP180;69819;48.798;11.770;2024-03-22T04:43:11;97949.00;;;4.90
80496;BMP180;69819;48.798;11.770;2024-03-22T04:45:37;97984.00;;;4.80
80496;BMP180;69819;48.798;11.770;2024-03-22T04:48:04;97914.00;;;4.80
80496;BMP180;69819;48.798;11.770;2024-03-22T04:50:31;97997.00;;;4.80
80496;BMP180;69819;48.798;11.770;2024-03-22T04:52:57;97977.00;;;4.80
80496;BMP180;69819;48.798;11.770;2024-03-22T04:55:23;97963.00;;;4.80
80496;BMP180;69819;48.798;11.770;2024-03-22T04:57:49;97983.00;;;4.80
80496;BMP180;69819;48.798;11.770;2024-03-22T05:00:15;97976.00;;;4.80
80496;BMP180;69819;48.798;11.770;2024-03-22T05:02:41;97999.00;;;4.80
80496;BMP180;69819;48.798;11.770;2024-03-22T05:05:08;97950.00;;;4.80
80496;BMP180;69819;48.798;11.770;2024-03-22T05:07:34;97961.00;;;4.80
80496;BMP180;69819;48.798;11.770;2024-03-22T05:09:59;97991.00;;;4.70
80496;BMP180;69819;48.798;11.770;2024-03-22T05:12:25;97964.00;;;4.70
80496;BMP180;69819;48.798;11.770;2024-03-22T05:14:51;97999.00;;;4.70
80496;BMP180;69819;48.798;11.770;2024-03-22T05:17:17;97977.00;;;4.70
80496;BMP180;69819;48.798;11.770;2024-03-22T05:19:42;98008.00;;;4.70
80496;BMP180;69819;48.798;11.770;2024-03-22T05:22:08;97958.00;;;4.70
80496;BMP180;69819;48.798;11.770;2024-03-22T05:24:34;97939.00;;;4.70
80496;BMP180;69819;48.798;11.770;2024-03-22T05:27:00;97991.00;;;4.70
80496;BMP180;69819;48.798;11.770;2024-03-22T05:29:25;97975.00;;;4.70
80496;BMP180;69819;48.798;11.770;2024-03-22T05:31:52;97930.00;;;4.70
80496;BMP180;69819;48.798;11.770;2024-03-22T05:34:18;97969.00;;;4.70
80496;BMP180;69819;48.798;11.770;2024-03-22T05:36:46;97992.00;;;4.70
80496;BMP180;69819;48.798;11.770;2024-03-22T05:39:12;97961.00;;;4.80
80496;BMP180;69819;48.798;11.770;2024-03-22T05:41:38;97983.00;;;4.80
80496;BMP180;69819;48.798;11.770;2024-03-22T05:44:04;97980.00;;;4.80
80496;BMP180;69819;48.798;11.770;2024-03-22T05:46:31;97992.00;;;4.90
80496;BMP180;69819;48.798;11.770;2024-03-22T05:48:58;97967.00;;;4.90
80496;BMP180;69819;48.798;11.770;2024-03-22T05:51:27;97956.00;;;5.00
80496;BMP180;69819;48.798;11.770;2024-03-22T05:53:52;97913.00;;;5.00
80496;BMP180;69819;48.798;11.770;2024-03-22T05:56:18;97967.00;;;5.10
80496;BMP180;69819;48.798;11.770;2024-03-22T05:58:44;97957.00;;;5.30
80496;BMP180;69819;48.798;11.770;2024-03-22T06:01:10;97961.00;;;5.40
80496;BMP180;69819;48.798;11.770;2024-03-22T06:03:36;97972.00;;;5.60
80496;BMP180;69819;48.798;11.770;2024-03-22T06:06:02;97964.00;;;5.80
80496;BMP180;69819;48.798;11.770;2024-03-22T06:08:29;97954.00;;;6.00
80496;BMP180;69819;48.798;11.770;2024-03-22T06:10:57;97977.00;;;6.30
80496;BMP180;69819;48.798;11.770;2024-03-22T06:13:23;97939.00;;;6.60
80496;BMP180;69819;48.798;11.770;2024-03-22T06:15:49;97963.00;;;6.90
80496;BMP180;69819;48.798;11.770;2024-03-22T06:18:16;97952.00;;;7.20
80496;BMP180;69819;48.798;11.770;2024-03-22T06:20:42;97982.00;;;7.70
80496;BMP180;69819;48.798;11.770;2024-03-22T06:23:09;97986.00;;;8.20
80496;BMP180;69819;48.798;11.770;2024-03-22T06:25:36;97952.00;;;8.70
80496;BMP180;69819;48.798;11.770;2024-03-22T06:28:02;97947.00;;;9.20
80496;BMP180;69819;48.798;11.770;2024-03-22T06:30:28;97979.00;;;9.80
80496;BMP180;69819;48.798;11.770;2024-03-22T06:32:54;97953.00;;;10.30
80496;BMP180;69819;48.798;11.770;2024-03-22T06:35:21;97950.00;;;10.80
80496;BMP180;69819;48.798;11.770;2024-03-22T06:37:46;97989.00;;;11.20
80496;BMP180;69819;48.798;11.770;2024-03-22T06:40:14;97932.00;;;11.40
80496;BMP180;69819;48.798;11.770;2024-03-22T06:42:40;97967.00;;;11.60
80496;BMP180;69819;48.798;11.770;2024-03-22T06:45:06;97982.00;;;11.50
80496;BMP180;69819;48.798;11.770;2024-03-22T06:47:32;97979.00;;;11.70
80496;BMP180;69819;48.798;11.770;2024-03-22T06:49:58;97911.00;;;11.70
80496;BMP180;69819;48.798;11.770;2024-03-22T06:52:24;97967.00;;;11.50
80496;BMP180;69819;48.798;11.770;2024-03-22T06:54:50;97947.00;;;11.70
80496;BMP180;69819;48.798;11.770;2024-03-22T06:57:15;97964.00;;;11.90
80496;BMP180;69819;48.798;11.770;2024-03-22T06:59:41;97980.00;;;12.20
80496;BMP180;69819;48.798;11.770;2024-03-22T07:02:07;97935.00;;;12.60
80496;BMP180;69819;48.798;11.770;2024-03-22T07:04:35;97958.00;;;13.20
80496;BMP180;69819;48.798;11.770;2024-03-22T07:07:01;97914.00;;;13.80
80496;BMP180;69819;48.798;11.770;2024-03-22T07:09:27;97947.00;;;14.60
80496;BMP180;69819;48.798;11.770;2024-03-22T07:11:55;97862.00;;;15.30
80496;BMP180;69819;48.798;11.770;2024-03-22T07:14:21;97962.00;;;15.90
80496;BMP180;69819;48.798;11.770;2024-03-22T07:16:50;97901.00;;;16.30
80496;BMP180;69819;48.798;11.770;2024-03-22T07:19:16;97911.00;;;16.70
80496;BMP180;69819;48.798;11.770;2024-03-22T07:21:42;97953.00;;;16.90
80496;BMP180;69819;48.798;11.770;2024-03-22T07:24:07;97929.00;;;17.00
80496;BMP180;69819;48.798;11.770;2024-03-22T07:26:33;97958.00;;;17.10
80496;BMP180;69819;48.798;11.770;2024-03-22T07:28:59;97936.00;;;17.10
80496;BMP180;69819;48.798;11.770;2024-03-22T07:31:25;97940.00;;;17.10
80496;BMP180;69819;48.798;11.770;2024-03-22T07:33:53;97957.00;;;17.10
80496;BMP180;69819;48.798;11.770;2024-03-22T07:36:18;97924.00;;;17.10
80496;BMP180;69819;48.798;11.770;2024-03-22T07:38:45;97940.00;;;17.10
80496;BMP180;69819;48.798;11.770;2024-03-22T07:41:11;97946.00;;;17.00
80496;BMP180;69819;48.798;11.770;2024-03-22T07:43:36;97952.00;;;17.00
80496;BMP180;69819;48.798;11.770;2024-03-22T07:46:02;97943.00;;;17.00
80496;BMP180;69819;48.798;11.770;2024-03-22T07:48:28;97919.00;;;16.90
80496;BMP180;69819;48.798;11.770;2024-03-22T07:51:01;97963.00;;;16.90
80496;BMP180;69819;48.798;11.770;2024-03-22T07:53:27;97957.00;;;16.90
80496;BMP180;69819;48.798;11.770;2024-03-22T07:55:53;97900.00;;;16.90
80496;BMP180;69819;48.798;11.770;2024-03-22T07:58:20;97930.00;;;16.90
80496;BMP180;69819;48.798;11.770;2024-03-22T08:00:45;97954.00;;;16.90
80496;BMP180;69819;48.798;11.770;2024-03-22T08:03:15;97963.00;;;16.90
80496;BMP180;69819;48.798;11.770;2024-03-22T08:05:42;97958.00;;;16.90
80496;BMP180;69819;48.798;11.770;2024-03-22T08:08:07;97933.00;;;16.90
80496;BMP180;69819;48.798;11.770;2024-03-22T08:10:33;97958.00;;;17.00
80496;BMP180;69819;48.798;11.770;2024-03-22T08:12:59;97950.00;;;17.00
80496;BMP180;69819;48.798;11.770;2024-03-22T08:15:26;97938.00;;;17.00
80496;BMP180;69819;48.798;11.770;2024-03-22T08:17:52;97950.00;;;17.10
80496;BMP180;69819;48.798;11.770;2024-03-22T08:20:18;97949.00;;;17.10
80496;BMP180;69819;48.798;11.770;2024-03-22T08:22:44;97948.00;;;17.20
80496;BMP180;69819;48.798;11.770;2024-03-22T08:25:10;97927.00;;;17.20
80496;BMP180;69819;48.798;11.770;2024-03-22T08:27:36;97933.00;;;17.30
80496;BMP180;69819;48.798;11.770;2024-03-22T08:30:01;97936.00;;;17.30
80496;BMP180;69819;48.798;11.770;2024-03-22T08:32:29;97950.00;;;17.40
80496;BMP180;69819;48.798;11.770;2024-03-22T08:34:55;97950.00;;;17.40
80496;BMP180;69819;48.798;11.770;2024-03-22T08:37:21;97949.00;;;17.50
80496;BMP180;69819;48.798;11.770;2024-03-22T08:39:47;97921.00;;;17.50
80496;BMP180;69819;48.798;11.770;2024-03-22T08:42:12;97909.00;;;17.60
80496;BMP180;69819;48.798;11.770;2024-03-22T08:44:38;97943.00;;;17.70
80496;BMP180;69819;48.798;11.770;2024-03-22T08:47:04;97943.00;;;17.70
80496;BMP180;69819;48.798;11.770;2024-03-22T08:49:30;97922.00;;;17.80
80496;BMP180;69819;48.798;11.770;2024-03-22T08:51:56;97937.00;;;18.00
80496;BMP180;69819;48.798;11.770;2024-03-22T08:54:21;97934.00;;;18.30
80496;BMP180;69819;48.798;11.770;2024-03-22T08:56:47;97923.00;;;18.70
80496;BMP180;69819;48.798;11.770;2024-03-22T08:59:13;97899.00;;;19.10
80496;BMP180;69819;48.798;11.770;2024-03-22T09:01:39;97909.00;;;19.70
80496;BMP180;69819;48.798;11.770;2024-03-22T09:04:04;97905.00;;;20.30
80496;BMP180;69819;48.798;11.770;2024-03-22T09:06:30;97923.00;;;20.90
80496;BMP180;69819;48.798;11.770;2024-03-22T09:08:56;97915.00;;;21.50
80496;BMP180;69819;48.798;11.770;2024-03-22T09:11:26;97914.00;;;22.00
80496;BMP180;69819;48.798;11.770;2024-03-22T09:13:53;97921.00;;;22.50
80496;BMP180;69819;48.798;11.770;2024-03-22T09:16:23;97912.00;;;22.80
80496;BMP180;69819;48.798;11.770;2024-03-22T09:18:49;97915.00;;;23.20
80496;BMP180;69819;48.798;11.770;2024-03-22T09:21:15;97912.00;;;23.70
80496;BMP180;69819;48.798;11.770;2024-03-22T09:23:40;97899.00;;;24.10
80496;BMP180;69819;48.798;11.770;2024-03-22T09:26:06;97901.00;;;24.40
80496;BMP180;69819;48.798;11.770;2024-03-22T09:28:32;97910.00;;;24.60
80496;BMP180;69819;48.798;11.770;2024-03-22T09:31:03;97908.00;;;24.60
80496;BMP180;69819;48.798;11.770;2024-03-22T09:33:29;97923.00;;;24.60
80496;BMP180;69819;48.798;11.770;2024-03-22T09:35:54;97918.00;;;24.50
80496;BMP180;69819;48.798;11.770;2024-03-22T09:38:20;97916.00;;;24.50
80496;BMP180;69819;48.798;11.770;2024-03-22T09:40:46;97891.00;;;24.70
80496;BMP180;69819;48.798;11.770;2024-03-22T09:43:15;97915.00;;;24.90
80496;BMP180;69819;48.798;11.770;2024-03-22T09:45:45;97901.00;;;25.20
80496;BMP180;69819;48.798;11.770;2024-03-22T09:48:11;97901.00;;;25.60
80496;BMP180;69819;48.798;11.770;2024-03-22T09:50:37;97897.00;;;25.80
80496;BMP180;69819;48.798;11.770;2024-03-22T09:53:03;97913.00;;;25.90
80496;BMP180;69819;48.798;11.770;2024-03-22T09:55:32;97892.00;;;26.00
80496;BMP180;69819;48.798;11.770;2024-03-22T09:57:58;97899.00;;;26.00
80496;BMP180;69819;48.798;11.770;2024-03-22T10:00:24;97894.00;;;25.90
80496;BMP180;69819;48.798;11.770;2024-03-22T10:02:51;97896.00;;;25.90
80496;BMP180;69819;48.798;11.770;2024-03-22T10:05:19;97894.00;;;25.80
80496;BMP180;69819;48.798;11.770;2024-03-22T10:07:45;97881.00;;;25.70
80496;BMP180;69819;48.798;11.770;2024-03-22T10:10:11;97903.00;;;25.60
80496;BMP180;69819;48.798;11.770;2024-03-22T10:12:39;97898.00;;;25.50
80496;BMP180;69819;48.798;11.770;2024-03-22T10:15:05;97906.00;;;25.40
80496;BMP180;69819;48.798;11.770;2024-03-22T10:17:35;97879.00;;;25.40
80496;BMP180;69819;48.798;11.770;2024-03-22T10:20:01;97885.00;;;25.30
80496;BMP180;69819;48.798;11.770;2024-03-22T10:22:26;97886.00;;;25.20
80496;BMP180;69819;48.798;11.770;2024-03-22T10:24:53;97890.00;;;25.10
80496;BMP180;69819;48.798;11.770;2024-03-22T10:27:20;97886.00;;;25.00
80496;BMP180;69819;48.798;11.770;2024-03-22T10:29:46;97877.00;;;24.90
80496;BMP180;69819;48.798;11.770;2024-03-22T10:32:12;97881.00;;;24.80
80496;BMP180;69819;48.798;11.770;2024-03-22T10:34:41;97867.00;;;24.60
80496;BMP180;69819;48.798;11.770;2024-03-22T10:37:14;97875.00;;;24.50
80496;BMP180;69819;48.798;11.770;2024-03-22T10:39:42;97857.00;;;24.30
80496;BMP180;69819;48.798;11.770;2024-03-22T10:42:11;97872.00;;;24.30
80496;BMP180;69819;48.798;11.770;2024-03-22T10:44:38;97866.00;;;24.20
80496;BMP180;69819;48.798;11.770;2024-03-22T10:47:09;97851.00;;;24.00
80496;BMP180;69819;48.798;11.770;2024-03-22T10:49:38;97871.00;;;24.00
80496;BMP180;69819;48.798;11.770;2024-03-22T10:52:07;97855.00;;;23.90
80496;BMP180;69819;48.798;11.770;2024-03-22T10:54:39;97854.00;;;23.80
80496;BMP180;69819;48.798;11.770;2024-03-22T10:57:11;97847.00;;;23.70
80496;BMP180;69819;48.798;11.770;2024-03-22T10:59:37;97830.00;;;23.70
80496;BMP180;69819;48.798;11.770;2024-03-22T11:02:04;97814.00;;;23.60
80496;BMP180;69819;48.798;11.770;2024-03-22T11:04:30;97815.00;;;23.60
80496;BMP180;69819;48.798;11.770;2024-03-22T11:06:59;97816.00;;;23.60
80496;BMP180;69819;48.798;11.770;2024-03-22T11:09:26;97823.00;;;23.60
80496;BMP180;69819;48.798;11.770;2024-03-22T11:11:54;97827.00;;;23.60
80496;BMP180;69819;48.798;11.770;2024-03-22T11:14:20;97791.00;;;23.60
80496;BMP180;69819;48.798;11.770;2024-03-22T11:16:47;97803.00;;;23.60
80496;BMP180;69819;48.798;11.770;2024-03-22T11:19:13;97799.00;;;23.70
80496;BMP180;69819;48.798;11.770;2024-03-22T11:21:39;97798.00;;;23.60
80496;BMP180;69819;48.798;11.770;2024-03-22T11:24:05;97786.00;;;23.70
80496;BMP180;69819;48.798;11.770;2024-03-22T11:26:33;97795.00;;;23.60
80496;BMP180;69819;48.798;11.770;2024-03-22T11:28:59;97769.00;;;23.60
80496;BMP180;69819;48.798;11.770;2024-03-22T11:31:26;97779.00;;;23.60
80496;BMP180;69819;48.798;11.770;2024-03-22T11:33:55;97788.00;;;23.60
80496;BMP180;69819;48.798;11.770;2024-03-22T11:36:23;97772.00;;;23.60
80496;BMP180;69819;48.798;11.770;2024-03-22T11:38:49;97775.00;;;23.60
80496;BMP180;69819;48.798;11.770;2024-03-22T11:41:34;97762.00;;;23.60
80496;BMP180;69819;48.798;11.770;2024-03-22T11:44:01;97761.00;;;23.70
80496;BMP180;69819;48.798;11.770;2024-03-22T11:46:28;97754.00;;;23.70
80496;BMP180;69819;48.798;11.770;2024-03-22T11:48:54;97750.00;;;23.70
80496;BMP180;69819;48.798;11.770;2024-03-22T11:51:21;97757.00;;;23.70
80496;BMP180;69819;48.798;11.770;2024-03-22T11:53:53;97742.00;;;23.60
80496;BMP180;69819;48.798;11.770;2024-03-22T11:56:22;97739.00;;;23.60
80496;BMP180;69819;48.798;11.770;2024-03-22T11:58:49;97719.00;;;23.50
80496;BMP180;69819;48.798;11.770;2024-03-22T12:01:16;97734.00;;;23.40
80496;BMP180;69819;48.798;11.770;2024-03-22T12:03:44;97719.00;;;23.20
80496;BMP180;69819;48.798;11.770;2024-03-22T12:06:11;97715.00;;;23.10
80496;BMP180;69819;48.798;11.770;2024-03-22T12:08:38;97713.00;;;22.90
80496;BMP180;69819;48.798;11.770;2024-03-22T12:11:10;97683.00;;;22.70
80496;BMP180;69819;48.798;11.770;2024-03-22T12:13:38;97712.00;;;22.60
80496;BMP180;69819;48.798;11.770;2024-03-22T12:16:04;97689.00;;;22.50
80496;BMP180;69819;48.798;11.770;2024-03-22T12:18:31;97666.00;;;22.30
80496;BMP180;69819;48.798;11.770;2024-03-22T12:20:57;97668.00;;;22.20
80496;BMP180;69819;48.798;11.770;2024-03-22T12:23:23;97674.00;;;22.10
80496;BMP180;69819;48.798;11.770;2024-03-22T12:25:50;97682.00;;;22.00
80496;BMP180;69819;48.798;11.770;2024-03-22T12:28:20;97657.00;;;21.90
80496;BMP180;69819;48.798;11.770;2024-03-22T12:30:47;97667.00;;;21.90
80496;BMP180;69819;48.798;11.770;2024-03-22T12:33:13;97649.00;;;21.80
80496;BMP180;69819;48.798;11.770;2024-03-22T12:35:42;97652.00;;;21.80
80496;BMP180;69819;48.798;11.770;2024-03-22T12:38:08;97657.00;;;21.80
80496;BMP180;69819;48.798;11.770;2024-03-22T12:40:38;97646.00;;;21.80
80496;BMP180;69819;48.798;11.770;2024-03-22T12:43:05;97663.00;;;21.80
80496;BMP180;69819;48.798;11.770;2024-03-22T12:45:31;97660.00;;;21.90
80496;BMP180;69819;48.798;11.770;2024-03-22T12:47:58;97635.00;;;21.90
80496;BMP180;69819;48.798;11.770;2024-03-22T12:50:26;97636.00;;;21.90
80496;BMP180;69819;48.798;11.770;2024-03-22T12:52:53;97613.00;;;22.00
80496;BMP180;69819;48.798;11.770;2024-03-22T12:55:18;97643.00;;;22.10
80496;BMP180;69819;48.798;11.770;2024-03-22T12:57:45;97640.00;;;22.10
80496;BMP180;69819;48.798;11.770;2024-03-22T13:00:12;97630.00;;;22.20
80496;BMP180;69819;48.798;11.770;2024-03-22T13:02:45;97632.00;;;22.30
80496;BMP180;69819;48.798;11.770;2024-03-22T13:05:11;97609.00;;;22.30
80496;BMP180;69819;48.798;11.770;2024-03-22T13:07:37;97612.00;;;22.40
80496;BMP180;69819;48.798;11.770;2024-03-22T13:10:04;97591.00;;;22.50
80496;BMP180;69819;48.798;11.770;2024-03-22T13:12:30;97590.00;;;22.50
80496;BMP180;69819;48.798;11.770;2024-03-22T13:15:03;97587.00;;;22.60
80496;BMP180;69819;48.798;11.770;2024-03-22T13:17:30;97585.00;;;22.60
80496;BMP180;69819;48.798;11.770;2024-03-22T13:19:55;97579.00;;;22.70
80496;BMP180;69819;48.798;11.770;2024-03-22T13:22:21;97584.00;;;22.70
80496;BMP180;69819;48.798;11.770;2024-03-22T13:24:48;97583.00;;;22.80
80496;BMP180;69819;48.798;11.770;2024-03-22T13:27:15;97571.00;;;22.80
80496;BMP180;69819;48.798;11.770;2024-03-22T13:29:41;97575.00;;;22.70
80496;BMP180;69819;48.798;11.770;2024-03-22T13:32:08;97570.00;;;22.70
80496;BMP180;69819;48.798;11.770;2024-03-22T13:34:35;97556.00;;;22.70
80496;BMP180;69819;48.798;11.770;2024-03-22T13:37:02;97545.00;;;22.70
80496;BMP180;69819;48.798;11.770;2024-03-22T13:39:28;97555.00;;;22.60
80496;BMP180;69819;48.798;11.770;2024-03-22T13:41:56;97542.00;;;22.60
80496;BMP180;69819;48.798;11.770;2024-03-22T13:44:22;97538.00;;;22.60
80496;BMP180;69819;48.798;11.770;2024-03-22T13:46:52;97535.00;;;22.50
80496;BMP180;69819;48.798;11.770;2024-03-22T13:49:19;97535.00;;;22.50
80496;BMP180;69819;48.798;11.770;2024-03-22T13:51:47;97530.00;;;22.50
80496;BMP180;69819;48.798;11.770;2024-03-22T13:54:14;97517.00;;;22.50
80496;BMP180;69819;48.798;11.770;2024-03-22T13:56:40;97496.00;;;22.50
80496;BMP180;69819;48.798;11.770;2024-03-22T13:59:06;97519.00;;;22.50